sensor_id;sensor_type;location;lat;lon;timestamp;pressure;altitude;pressure_sealevel;temperature;humidity
58056;BME280;53159;55.152;36.614;2022-09-24T00:01:38;98766.66;;;8.09;100.00
58056;BME280;53159;55.152;36.614;2022-09-24T00:04:09;98741.59;;;8.03;100.00
58056;BME280;53159;55.152;36.614;2022-09-24T00:06:47;98761.56;;;8.11;100.00
58056;BME280;53159;55.152;36.614;2022-09-24T00:09:17;98731.16;;;7.99;100.00
58056;BME280;53159;55.152;36.614;2022-09-24T00:11:50;98742.56;;;8.10;100.00
58056;BME280;53159;55.152;36.614;2022-09-24T00:14:18;98730.56;;;8.11;100.00
58056;BME280;53159;55.152;36.614;2022-09-24T00:16:45;98708.72;;;7.96;100.00
58056;BME280;53159;55.152;36.614;2022-09-24T00:19:14;98713.06;;;7.97;100.00
58056;BME280;53159;55.152;36.614;2022-09-24T00:21:42;98704.41;;;7.95;100.00
58056;BME280;53159;55.152;36.614;2022-09-24T00:24:12;98693.13;;;7.91;100.00
58056;BME280;53159;55.152;36.614;2022-09-24T00:26:59;98722.69;;;8.06;100.00
58056;BME280;53159;55.152;36.614;2022-09-24T00:29:27;98696.66;;;7.97;100.00
58056;BME280;53159;55.152;36.614;2022-09-24T00:31:56;98687.25;;;7.99;100.00
58056;BME280;53159;55.152;36.614;2022-09-24T00:34:24;98695.81;;;7.98;100.00
58056;BME280;53159;55.152;36.614;2022-09-24T00:36:51;98694.19;;;8.03;100.00
58056;BME280;53159;55.152;36.614;2022-09-24T00:39:19;98667.28;;;7.91;100.00
58056;BME280;53159;55.152;36.614;2022-09-24T00:41:48;98667.31;;;7.93;100.00
58056;BME280;53159;55.152;36.614;2022-09-24T00:44:52;98664.66;;;7.88;100.00
58056;BME280;53159;55.152;36.614;2022-09-24T00:47:23;98684.75;;;8.03;100.00
58056;BME280;53159;55.152;36.614;2022-09-24T00:50:17;98677.00;;;8.03;100.00
58056;BME280;53159;55.152;36.614;2022-09-24T00:52:58;98650.03;;;7.90;100.00
58056;BME280;53159;55.152;36.614;2022-09-24T00:55:28;98665.75;;;8.01;100.00
58056;BME280;53159;55.152;36.614;2022-09-24T00:57:59;98662.25;;;7.99;100.00
58056;BME280;53159;55.152;36.614;2022-09-24T01:00:28;98650.25;;;8.00;100.00
58056;BME280;53159;55.152;36.614;2022-09-24T01:03:01;98643.28;;;7.96;100.00
58056;BME280;53159;55.152;36.614;2022-09-24T01:05:34;98637.09;;;7.89;100.00
58056;BME280;53159;55.152;36.614;2022-09-24T01:08:04;98644.13;;;7.96;100.00
58056;BME280;53159;55.152;36.614;2022-09-24T01:16:08;98614.47;;;7.75;100.00
58056;BME280;53159;55.152;36.614;2022-09-24T01:18:45;98636.38;;;7.95;100.00
58056;BME280;53159;55.152;36.614;2022-09-24T01:21:47;98627.72;;;7.94;100.00
58056;BME280;53159;55.152;36.614;2022-09-24T01:30:10;98614.78;;;7.93;100.00
58056;BME280;53159;55.152;36.614;2022-09-24T01:32:46;98602.59;;;7.85;100.00
58056;BME280;53159;55.152;36.614;2022-09-24T01:35:25;98590.38;;;7.75;100.00
58056;BME280;53159;55.152;36.614;2022-09-24T01:38:02;98586.09;;;7.77;100.00
58056;BME280;53159;55.152;36.614;2022-09-24T01:40:32;98585.44;;;7.87;100.00
58056;BME280;53159;55.152;36.614;2022-09-24T01:43:04;98583.56;;;7.80;100.00
58056;BME280;53159;55.152;36.614;2022-09-24T01:45:34;98598.34;;;7.87;100.00
58056;BME280;53159;55.152;36.614;2022-09-24T01:48:03;98593.19;;;7.89;100.00
58056;BME280;53159;55.152;36.614;2022-09-24T01:50:45;98584.50;;;7.84;100.00
58056;BME280;53159;55.152;36.614;2022-09-24T01:53:25;98588.03;;;7.89;100.00
58056;BME280;53159;55.152;36.614;2022-09-24T01:56:04;98578.56;;;7.89;100.00
58056;BME280;53159;55.152;36.614;2022-09-24T01:58:44;98580.28;;;7.90;100.00
58056;BME280;53159;55.152;36.614;2022-09-24T02:01:25;98568.28;;;7.91;100.00
58056;BME280;53159;55.152;36.614;2022-09-24T02:04:02;98557.78;;;7.83;100.00
58056;BME280;53159;55.152;36.614;2022-09-24T02:06:45;98558.72;;;7.87;100.00
58056;BME280;53159;55.152;36.614;2022-09-24T02:12:11;98553.53;;;7.87;100.00
58056;BME280;53159;55.152;36.614;2022-09-24T02:14:48;98549.28;;;7.89;100.00
58056;BME280;53159;55.152;36.614;2022-09-24T02:17:23;98539.75;;;7.85;100.00
58056;BME280;53159;55.152;36.614;2022-09-24T02:19:53;98533.75;;;7.87;100.00
58056;BME280;53159;55.152;36.614;2022-09-24T02:22:23;98521.59;;;7.80;100.00
58056;BME280;53159;55.152;36.614;2022-09-24T02:24:53;98523.53;;;7.94;100.00
58056;BME280;53159;55.152;36.614;2022-09-24T02:27:24;98497.31;;;7.72;100.00
58056;BME280;53159;55.152;36.614;2022-09-24T02:29:55;98506.91;;;7.78;100.00
58056;BME280;53159;55.152;36.614;2022-09-24T02:32:28;98500.94;;;7.82;100.00
58056;BME280;53159;55.152;36.614;2022-09-24T02:35:00;98461.88;;;7.62;100.00
58056;BME280;53159;55.152;36.614;2022-09-24T02:37:38;98477.50;;;7.69;100.00
58056;BME280;53159;55.152;36.614;2022-09-24T02:40:09;98493.19;;;7.82;100.00
58056;BME280;53159;55.152;36.614;2022-09-24T02:42:38;98465.41;;;7.68;100.00
58056;BME280;53159;55.152;36.614;2022-09-24T02:45:08;98465.47;;;7.71;100.00
58056;BME280;53159;55.152;36.614;2022-09-24T02:47:35;98476.84;;;7.81;100.00
58056;BME280;53159;55.152;36.614;2022-09-24T02:50:04;98451.72;;;7.72;100.00
58056;BME280;53159;55.152;36.614;2022-09-24T02:52:33;98429.13;;;7.59;100.00
58056;BME280;53159;55.152;36.614;2022-09-24T02:55:01;98429.22;;;7.65;100.00
58056;BME280;53159;55.152;36.614;2022-09-24T02:57:28;98452.66;;;7.78;100.00
58056;BME280;53159;55.152;36.614;2022-09-24T02:59:56;98449.25;;;7.79;100.00
58056;BME280;53159;55.152;36.614;2022-09-24T03:02:24;98444.13;;;7.82;100.00
58056;BME280;53159;55.152;36.614;2022-09-24T03:04:52;98425.03;;;7.72;100.00
58056;BME280;53159;55.152;36.614;2022-09-24T03:07:21;98422.50;;;7.75;100.00
58056;BME280;53159;55.152;36.614;2022-09-24T03:09:47;98428.53;;;7.77;100.00
58056;BME280;53159;55.152;36.614;2022-09-24T03:12:16;98411.16;;;7.65;100.00
58056;BME280;53159;55.152;36.614;2022-09-24T03:14:43;98425.13;;;7.78;100.00
58056;BME280;53159;55.152;36.614;2022-09-24T03:17:10;98423.31;;;7.72;100.00
58056;BME280;53159;55.152;36.614;2022-09-24T03:19:37;98414.66;;;7.69;100.00
58056;BME280;53159;55.152;36.614;2022-09-24T03:22:07;98395.59;;;7.62;100.00
58056;BME280;53159;55.152;36.614;2022-09-24T03:24:35;98402.56;;;7.66;100.00
58056;BME280;53159;55.152;36.614;2022-09-24T03:27:04;98407.03;;;7.78;100.00
58056;BME280;53159;55.152;36.614;2022-09-24T03:29:33;98398.38;;;7.74;100.00
58056;BME280;53159;55.152;36.614;2022-09-24T03:32:20;98389.75;;;7.72;100.00
58056;BME280;53159;55.152;36.614;2022-09-24T03:34:47;98397.53;;;7.77;100.00
58056;BME280;53159;55.152;36.614;2022-09-24T03:37:14;98393.19;;;7.73;100.00
58056;BME280;53159;55.152;36.614;2022-09-24T03:39:41;98382.03;;;7.75;100.00
58056;BME280;53159;55.152;36.614;2022-09-24T03:42:07;98353.44;;;7.63;100.00
58056;BME280;53159;55.152;36.614;2022-09-24T03:44:36;98343.03;;;7.57;100.00
58056;BME280;53159;55.152;36.614;2022-09-24T03:47:03;98337.94;;;7.63;100.00
58056;BME280;53159;55.152;36.614;2022-09-24T03:49:29;98338.88;;;7.67;100.00
58056;BME280;53159;55.152;36.614;2022-09-24T03:51:57;98320.69;;;7.59;100.00
58056;BME280;53159;55.152;36.614;2022-09-24T03:54:25;98331.09;;;7.65;100.00
58056;BME280;53159;55.152;36.614;2022-09-24T03:56:52;98332.94;;;7.72;100.00
58056;BME280;53159;55.152;36.614;2022-09-24T03:59:19;98325.13;;;7.68;100.00
58056;BME280;53159;55.152;36.614;2022-09-24T04:01:46;98325.16;;;7.71;100.00
58056;BME280;53159;55.152;36.614;2022-09-24T04:04:13;98334.78;;;7.80;100.00
58056;BME280;53159;55.152;36.614;2022-09-24T04:06:42;98328.69;;;7.76;100.00
58056;BME280;53159;55.152;36.614;2022-09-24T04:09:10;98312.22;;;7.69;100.00
58056;BME280;53159;55.152;36.614;2022-09-24T04:11:37;98334.78;;;7.80;100.00
58056;BME280;53159;55.152;36.614;2022-09-24T04:14:05;98307.94;;;7.70;100.00
58056;BME280;53159;55.152;36.614;2022-09-24T04:16:32;98289.88;;;7.71;100.00
58056;BME280;53159;55.152;36.614;2022-09-24T04:19:00;98291.56;;;7.69;100.00
58056;BME280;53159;55.152;36.614;2022-09-24T04:21:36;98295.81;;;7.66;100.00
58056;BME280;53159;55.152;36.614;2022-09-24T04:24:07;98299.44;;;7.79;100.00
58056;BME280;53159;55.152;36.614;2022-09-24T04:26:35;98290.00;;;7.81;100.00
58056;BME280;53159;55.152;36.614;2022-09-24T04:29:02;98282.22;;;7.79;100.00
58056;BME280;53159;55.152;36.614;2022-09-24T04:31:29;98263.22;;;7.72;100.00
58056;BME280;53159;55.152;36.614;2022-09-24T04:33:59;98253.66;;;7.65;100.00
58056;BME280;53159;55.152;36.614;2022-09-24T04:36:27;98274.47;;;7.76;100.00
58056;BME280;53159;55.152;36.614;2022-09-24T04:38:54;98260.66;;;7.74;100.00
58056;BME280;53159;55.152;36.614;2022-09-24T04:41:22;98255.50;;;7.75;100.00
58056;BME280;53159;55.152;36.614;2022-09-24T04:43:49;98247.75;;;7.77;100.00
58056;BME280;53159;55.152;36.614;2022-09-24T04:46:16;98263.34;;;7.83;100.00
58056;BME280;53159;55.152;36.614;2022-09-24T04:48:44;98250.31;;;7.75;100.00
58056;BME280;53159;55.152;36.614;2022-09-24T04:51:11;98250.47;;;7.86;100.00
58056;BME280;53159;55.152;36.614;2022-09-24T04:53:38;98254.78;;;7.87;100.00
58056;BME280;53159;55.152;36.614;2022-09-24T04:56:07;98240.97;;;7.85;100.00
58056;BME280;53159;55.152;36.614;2022-09-24T04:58:37;98234.16;;;7.89;100.00
58056;BME280;53159;55.152;36.614;2022-09-24T05:01:04;98245.31;;;7.89;100.00
58056;BME280;53159;55.152;36.614;2022-09-24T05:03:31;98233.31;;;7.90;100.00
58056;BME280;53159;55.152;36.614;2022-09-24T05:05:58;98242.03;;;7.98;100.00
58056;BME280;53159;55.152;36.614;2022-09-24T05:08:27;98212.50;;;7.81;100.00
58056;BME280;53159;55.152;36.614;2022-09-24T05:10:53;98237.69;;;7.97;100.00
58056;BME280;53159;55.152;36.614;2022-09-24T05:13:20;98251.53;;;8.01;100.00
58056;BME280;53159;55.152;36.614;2022-09-24T05:15:46;98234.91;;;7.83;100.00
58056;BME280;53159;55.152;36.614;2022-09-24T05:18:15;98227.94;;;7.74;100.00
58056;BME280;53159;55.152;36.614;2022-09-24T05:20:47;98235.00;;;7.89;100.00
58056;BME280;53159;55.152;36.614;2022-09-24T05:23:16;98217.66;;;7.78;100.00
58056;BME280;53159;55.152;36.614;2022-09-24T05:25:44;98203.84;;;7.75;100.00
58056;BME280;53159;55.152;36.614;2022-09-24T05:28:30;98189.94;;;7.66;100.00
58056;BME280;53159;55.152;36.614;2022-09-24T05:31:00;98183.09;;;7.66;100.00
58056;BME280;53159;55.152;36.614;2022-09-24T05:33:28;98217.75;;;7.87;100.00
58056;BME280;53159;55.152;36.614;2022-09-24T05:35:56;98197.84;;;7.77;100.00
58056;BME280;53159;55.152;36.614;2022-09-24T05:38:24;98181.50;;;7.78;100.00
58056;BME280;53159;55.152;36.614;2022-09-24T05:40:51;98166.78;;;7.72;100.00
58056;BME280;53159;55.152;36.614;2022-09-24T05:43:18;98197.97;;;7.89;100.00
58056;BME280;53159;55.152;36.614;2022-09-24T05:45:46;98186.72;;;7.84;100.00
58056;BME280;53159;55.152;36.614;2022-09-24T05:48:17;98165.13;;;7.77;100.00
58056;BME280;53159;55.152;36.614;2022-09-24T05:50:43;98159.94;;;7.72;100.00
58056;BME280;53159;55.152;36.614;2022-09-24T05:53:10;98165.16;;;7.79;100.00
58056;BME280;53159;55.152;36.614;2022-09-24T05:55:37;98177.38;;;7.92;100.00
58056;BME280;53159;55.152;36.614;2022-09-24T05:58:06;98146.09;;;7.69;100.00
58056;BME280;53159;55.152;36.614;2022-09-24T06:00:33;98169.56;;;7.87;100.00
58056;BME280;53159;55.152;36.614;2022-09-24T06:03:03;98131.53;;;7.72;100.00
58056;BME280;53159;55.152;36.614;2022-09-24T06:05:33;98109.97;;;7.69;100.00
58056;BME280;53159;55.152;36.614;2022-09-24T06:08:03;98128.16;;;7.80;100.00
58056;BME280;53159;55.152;36.614;2022-09-24T06:10:31;98135.97;;;7.87;100.00
58056;BME280;53159;55.152;36.614;2022-09-24T06:12:58;98114.31;;;7.74;100.00
58056;BME280;53159;55.152;36.614;2022-09-24T06:15:26;98158.47;;;7.96;100.00
58056;BME280;53159;55.152;36.614;2022-09-24T06:17:54;98130.75;;;7.83;100.00
58056;BME280;53159;55.152;36.614;2022-09-24T06:20:22;98127.28;;;7.79;100.00
58056;BME280;53159;55.152;36.614;2022-09-24T06:22:53;98130.81;;;7.87;100.00
58056;BME280;53159;55.152;36.614;2022-09-24T06:25:20;98090.09;;;7.62;100.00
58056;BME280;53159;55.152;36.614;2022-09-24T06:27:58;98100.47;;;7.66;100.00
58056;BME280;53159;55.152;36.614;2022-09-24T06:30:32;98119.50;;;7.76;100.00
58056;BME280;53159;55.152;36.614;2022-09-24T06:33:11;98076.22;;;7.53;100.00
58056;BME280;53159;55.152;36.614;2022-09-24T06:35:41;98099.63;;;7.69;100.00
58056;BME280;53159;55.152;36.614;2022-09-24T06:38:16;98117.75;;;7.73;100.00
58056;BME280;53159;55.152;36.614;2022-09-24T06:40:45;98070.06;;;7.40;100.00
58056;BME280;53159;55.152;36.614;2022-09-24T06:43:13;98073.56;;;7.46;100.00
58056;BME280;53159;55.152;36.614;2022-09-24T06:45:41;98073.56;;;7.47;100.00
58056;BME280;53159;55.152;36.614;2022-09-24T06:48:12;98113.47;;;7.77;100.00
58056;BME280;53159;55.152;36.614;2022-09-24T06:50:42;98084.06;;;7.63;100.00
58056;BME280;53159;55.152;36.614;2022-09-24T06:53:11;98088.47;;;7.70;100.00
58056;BME280;53159;55.152;36.614;2022-09-24T06:55:39;98053.03;;;7.55;100.00
58056;BME280;53159;55.152;36.614;2022-09-24T06:58:11;98076.31;;;7.63;100.00
58056;BME280;53159;55.152;36.614;2022-09-24T07:00:39;98070.28;;;7.62;100.00
58056;BME280;53159;55.152;36.614;2022-09-24T07:03:15;98057.28;;;7.53;100.00
58056;BME280;53159;55.152;36.614;2022-09-24T07:05:44;98072.94;;;7.68;100.00
58056;BME280;53159;55.152;36.614;2022-09-24T07:08:11;98081.50;;;7.66;100.00
58056;BME280;53159;55.152;36.614;2022-09-24T07:10:44;98077.22;;;7.66;100.00
58056;BME280;53159;55.152;36.614;2022-09-24T07:13:14;98055.47;;;7.44;100.00
58056;BME280;53159;55.152;36.614;2022-09-24T07:15:43;98055.41;;;7.39;100.00
58056;BME280;53159;55.152;36.614;2022-09-24T07:18:11;98071.03;;;7.52;100.00
58056;BME280;53159;55.152;36.614;2022-09-24T07:20:38;98087.50;;;7.65;100.00
58056;BME280;53159;55.152;36.614;2022-09-24T07:23:08;98077.09;;;7.54;100.00
58056;BME280;53159;55.152;36.614;2022-09-24T07:25:36;98064.13;;;7.51;100.00
58056;BME280;53159;55.152;36.614;2022-09-24T07:28:09;98083.16;;;7.59;100.00
58056;BME280;53159;55.152;36.614;2022-09-24T07:30:38;98078.91;;;7.64;100.00
58056;BME280;53159;55.152;36.614;2022-09-24T07:33:05;98053.03;;;7.59;100.00
58056;BME280;53159;55.152;36.614;2022-09-24T07:35:40;98061.75;;;7.68;100.00
58056;BME280;53159;55.152;36.614;2022-09-24T07:38:10;98064.31;;;7.66;100.00
58056;BME280;53159;55.152;36.614;2022-09-24T07:40:45;98059.88;;;7.56;100.00
58056;BME280;53159;55.152;36.614;2022-09-24T07:43:19;98042.56;;;7.46;100.00
58056;BME280;53159;55.152;36.614;2022-09-24T07:45:47;98084.94;;;7.63;100.00
58056;BME280;53159;55.152;36.614;2022-09-24T07:52:10;98051.03;;;7.31;100.00
58056;BME280;53159;55.152;36.614;2022-09-24T07:54:37;98052.75;;;7.32;100.00
58056;BME280;53159;55.152;36.614;2022-09-24T07:57:11;98035.47;;;7.28;100.00
58056;BME280;53159;55.152;36.614;2022-09-24T07:59:40;98056.31;;;7.43;100.00
58056;BME280;53159;55.152;36.614;2022-09-24T08:02:16;98090.09;;;7.63;100.00
58056;BME280;53159;55.152;36.614;2022-09-24T08:04:43;98044.19;;;7.36;100.00
58056;BME280;53159;55.152;36.614;2022-09-24T08:07:28;98061.56;;;7.49;100.00
58056;BME280;53159;55.152;36.614;2022-09-24T08:09:57;98044.25;;;7.39;100.00
58056;BME280;53159;55.152;36.614;2022-09-24T08:12:42;98050.25;;;7.41;100.00
58056;BME280;53159;55.152;36.614;2022-09-24T08:15:39;98047.69;;;7.41;100.00
58056;BME280;53159;55.152;36.614;2022-09-24T08:18:09;98030.44;;;7.35;100.00
58056;BME280;53159;55.152;36.614;2022-09-24T08:20:37;98026.97;;;7.35;100.00
58056;BME280;53159;55.152;36.614;2022-09-24T08:23:07;98054.59;;;7.43;100.00
58056;BME280;53159;55.152;36.614;2022-09-24T08:25:35;98046.84;;;7.43;100.00
58056;BME280;53159;55.152;36.614;2022-09-24T08:28:15;98025.22;;;7.34;100.00
58056;BME280;53159;55.152;36.614;2022-09-24T08:31:04;98050.31;;;7.46;100.00
58056;BME280;53159;55.152;36.614;2022-09-24T08:33:39;98032.19;;;7.38;100.00
58056;BME280;53159;55.152;36.614;2022-09-24T08:36:10;98016.69;;;7.36;100.00
58056;BME280;53159;55.152;36.614;2022-09-24T08:38:40;98032.19;;;7.39;100.00
58056;BME280;53159;55.152;36.614;2022-09-24T08:41:42;98059.09;;;7.60;100.00
58056;BME280;53159;55.152;36.614;2022-09-24T08:44:22;98023.63;;;7.42;100.00
58056;BME280;53159;55.152;36.614;2022-09-24T08:47:15;98020.13;;;7.35;100.00
58056;BME280;53159;55.152;36.614;2022-09-24T08:49:57;98010.63;;;7.34;100.00
58056;BME280;53159;55.152;36.614;2022-09-24T08:52:58;98039.28;;;7.59;100.00
58056;BME280;53159;55.152;36.614;2022-09-24T08:55:45;98001.22;;;7.41;100.00
58056;BME280;53159;55.152;36.614;2022-09-24T09:01:04;98019.34;;;7.42;100.00
58056;BME280;53159;55.152;36.614;2022-09-24T09:06:43;98034.00;;;7.50;100.00
58056;BME280;53159;55.152;36.614;2022-09-24T09:12:22;98011.53;;;7.39;100.00
58056;BME280;53159;55.152;36.614;2022-09-24T09:17:57;98034.09;;;7.57;100.00
58056;BME280;53159;55.152;36.614;2022-09-24T09:20:51;98019.34;;;7.42;100.00
58056;BME280;53159;55.152;36.614;2022-09-24T09:23:29;97997.66;;;7.28;100.00
58056;BME280;53159;55.152;36.614;2022-09-24T09:25:59;98028.81;;;7.47;100.00
58056;BME280;53159;55.152;36.614;2022-09-24T09:28:28;98015.84;;;7.40;100.00
58056;BME280;53159;55.152;36.614;2022-09-24T09:31:06;97993.22;;;7.15;100.00
58056;BME280;53159;55.152;36.614;2022-09-24T09:34:11;98010.56;;;7.28;100.00
58056;BME280;53159;55.152;36.614;2022-09-24T09:39:27;98026.13;;;7.37;100.00
58056;BME280;53159;55.152;36.614;2022-09-24T09:44:39;97998.44;;;7.21;100.00
58056;BME280;53159;55.152;36.614;2022-09-24T09:50:44;97996.91;;;7.38;100.00
58056;BME280;53159;55.152;36.614;2022-09-24T09:53:20;97960.50;;;7.10;100.00
58056;BME280;53159;55.152;36.614;2022-09-24T09:56:06;98008.06;;;7.36;100.00
58056;BME280;53159;55.152;36.614;2022-09-24T09:58:36;97963.84;;;7.03;100.00
58056;BME280;53159;55.152;36.614;2022-09-24T10:01:11;97989.81;;;7.19;100.00
58056;BME280;53159;55.152;36.614;2022-09-24T10:06:26;97973.34;;;7.09;100.00
58056;BME280;53159;55.152;36.614;2022-09-24T10:09:14;97971.66;;;7.09;100.00
58056;BME280;53159;55.152;36.614;2022-09-24T10:11:42;97972.56;;;7.13;100.00
58056;BME280;53159;55.152;36.614;2022-09-24T10:14:12;97970.88;;;7.17;100.00
58056;BME280;53159;55.152;36.614;2022-09-24T10:16:44;97970.03;;;7.18;100.00
58056;BME280;53159;55.152;36.614;2022-09-24T10:19:25;97989.88;;;7.25;100.00
58056;BME280;53159;55.152;36.614;2022-09-24T10:21:55;97972.69;;;7.25;100.00
58056;BME280;53159;55.152;36.614;2022-09-24T10:24:26;97977.00;;;7.26;100.00
58056;BME280;53159;55.152;36.614;2022-09-24T10:26:54;97979.66;;;7.34;100.00
58056;BME280;53159;55.152;36.614;2022-09-24T10:29:29;97994.31;;;7.37;100.00
58056;BME280;53159;55.152;36.614;2022-09-24T10:32:22;97957.94;;;7.15;100.00
58056;BME280;53159;55.152;36.614;2022-09-24T10:35:00;97973.53;;;7.23;100.00
58056;BME280;53159;55.152;36.614;2022-09-24T10:37:28;97954.53;;;7.16;100.00
58056;BME280;53159;55.152;36.614;2022-09-24T10:40:11;97986.31;;;7.12;100.00
58056;BME280;53159;55.152;36.614;2022-09-24T10:42:39;97990.69;;;7.19;100.00
58056;BME280;53159;55.152;36.614;2022-09-24T10:45:12;97963.72;;;6.92;100.00
58056;BME280;53159;55.152;36.614;2022-09-24T10:53:07;97962.97;;;7.03;100.00
58056;BME280;53159;55.152;36.614;2022-09-24T10:55:57;97948.38;;;7.02;100.00
58056;BME280;53159;55.152;36.614;2022-09-24T10:58:48;97982.09;;;7.20;100.00
58056;BME280;53159;55.152;36.614;2022-09-24T11:01:29;97988.31;;;7.36;100.00
58056;BME280;53159;55.152;36.614;2022-09-24T11:07:30;97979.53;;;7.22;100.00
58056;BME280;53159;55.152;36.614;2022-09-24T11:10:20;97987.34;;;7.28;100.00
58056;BME280;53159;55.152;36.614;2022-09-24T11:15:55;97957.03;;;7.10;100.00
58056;BME280;53159;55.152;36.614;2022-09-24T11:24:45;97993.34;;;7.25;100.00
58056;BME280;53159;55.152;36.614;2022-09-24T11:30:19;97994.19;;;7.26;100.00
58056;BME280;53159;55.152;36.614;2022-09-24T11:35:59;97974.50;;;7.33;100.00
58056;BME280;53159;55.152;36.614;2022-09-24T11:54:02;97982.06;;;7.17;100.00
58056;BME280;53159;55.152;36.614;2022-09-24T11:56:43;97962.03;;;6.93;100.00
58056;BME280;53159;55.152;36.614;2022-09-24T12:01:55;97955.91;;;6.85;100.00
58056;BME280;53159;55.152;36.614;2022-09-24T12:04:37;97973.28;;;7.00;100.00
58056;BME280;53159;55.152;36.614;2022-09-24T12:07:12;97977.56;;;6.99;100.00
58056;BME280;53159;55.152;36.614;2022-09-24T12:09:52;97972.28;;;6.90;100.00
58056;BME280;53159;55.152;36.614;2022-09-24T12:12:36;97986.16;;;7.00;100.00
58056;BME280;53159;55.152;36.614;2022-09-24T12:15:29;97981.00;;;6.98;100.00
58056;BME280;53159;55.152;36.614;2022-09-24T12:20:29;97954.88;;;6.70;100.00
58056;BME280;53159;55.152;36.614;2022-09-24T12:23:04;97960.00;;;6.67;100.00
58056;BME280;53159;55.152;36.614;2022-09-24T12:25:44;97934.16;;;6.61;100.00
58056;BME280;53159;55.152;36.614;2022-09-24T12:28:14;97954.78;;;6.63;100.00
58056;BME280;53159;55.152;36.614;2022-09-24T12:31:08;97943.47;;;6.51;100.00
58056;BME280;53159;55.152;36.614;2022-09-24T12:37:01;97974.66;;;6.73;100.00
58056;BME280;53159;55.152;36.614;2022-09-24T12:39:45;97933.03;;;6.43;100.00
58056;BME280;53159;55.152;36.614;2022-09-24T12:42:19;97937.47;;;6.52;100.00
58056;BME280;53159;55.152;36.614;2022-09-24T12:44:54;97951.22;;;6.53;100.00
58056;BME280;53159;55.152;36.614;2022-09-24T12:47:27;97923.63;;;6.44;100.00
58056;BME280;53159;55.152;36.614;2022-09-24T12:50:00;97917.66;;;6.48;100.00
58056;BME280;53159;55.152;36.614;2022-09-24T12:52:38;97960.94;;;6.74;100.00
58056;BME280;53159;55.152;36.614;2022-09-24T12:55:29;97917.63;;;6.47;100.00
58056;BME280;53159;55.152;36.614;2022-09-24T13:01:07;97922.03;;;6.57;100.00
58056;BME280;53159;55.152;36.614;2022-09-24T13:03:41;97908.09;;;6.39;100.00
58056;BME280;53159;55.152;36.614;2022-09-24T13:09:00;97922.78;;;6.47;100.00
58056;BME280;53159;55.152;36.614;2022-09-24T13:11:30;97924.50;;;6.46;100.00
58056;BME280;53159;55.152;36.614;2022-09-24T13:14:18;97912.38;;;6.39;100.00
58056;BME280;53159;55.152;36.614;2022-09-24T13:16:50;97927.88;;;6.42;100.00
58056;BME280;53159;55.152;36.614;2022-09-24T13:19:47;97913.09;;;6.28;100.00
58056;BME280;53159;55.152;36.614;2022-09-24T13:22:35;97943.41;;;6.47;100.00
58056;BME280;53159;55.152;36.614;2022-09-24T13:27:38;97948.56;;;6.47;100.00
58056;BME280;53159;55.152;36.614;2022-09-24T13:30:36;97942.47;;;6.41;100.00
58056;BME280;53159;55.152;36.614;2022-09-24T13:35:47;97900.84;;;6.12;100.00
58056;BME280;53159;55.152;36.614;2022-09-24T13:38:54;97917.13;;;6.09;100.00
58056;BME280;53159;55.152;36.614;2022-09-24T13:44:20;97906.78;;;6.06;100.00
58056;BME280;53159;55.152;36.614;2022-09-24T13:47:00;97917.97;;;6.07;100.00
58056;BME280;53159;55.152;36.614;2022-09-24T13:49:53;97923.13;;;6.10;100.00
58056;BME280;53159;55.152;36.614;2022-09-24T13:55:45;97948.31;;;6.28;100.00
58056;BME280;53159;55.152;36.614;2022-09-24T13:58:31;97932.84;;;6.26;100.00
58056;BME280;53159;55.152;36.614;2022-09-24T14:01:03;97895.41;;;5.92;100.00
58056;BME280;53159;55.152;36.614;2022-09-24T14:03:33;97942.22;;;6.21;100.00
58056;BME280;53159;55.152;36.614;2022-09-24T14:06:09;97891.94;;;5.91;100.00
58056;BME280;53159;55.152;36.614;2022-09-24T14:08:48;97900.63;;;5.96;100.00
58056;BME280;53159;55.152;36.614;2022-09-24T14:11:23;97921.38;;;6.04;100.00
58056;BME280;53159;55.152;36.614;2022-09-24T14:13:50;97893.59;;;5.86;100.00
58056;BME280;53159;55.152;36.614;2022-09-24T14:16:24;97924.84;;;6.08;100.00
58056;BME280;53159;55.152;36.614;2022-09-24T14:19:03;97911.91;;;6.03;100.00
58056;BME280;53159;55.152;36.614;2022-09-24T14:21:33;97926.63;;;6.13;100.00
58056;BME280;53159;55.152;36.614;2022-09-24T14:24:08;97929.19;;;6.13;100.00
58056;BME280;53159;55.152;36.614;2022-09-24T14:26:58;97887.50;;;5.81;100.00
58056;BME280;53159;55.152;36.614;2022-09-24T14:29:43;97889.25;;;5.82;100.00
58056;BME280;53159;55.152;36.614;2022-09-24T14:32:26;97900.47;;;5.87;100.00
58056;BME280;53159;55.152;36.614;2022-09-24T14:35:02;97903.88;;;5.86;100.00
58056;BME280;53159;55.152;36.614;2022-09-24T14:37:36;97939.41;;;6.06;100.00
58056;BME280;53159;55.152;36.614;2022-09-24T14:40:17;97891.75;;;5.79;100.00
58056;BME280;53159;55.152;36.614;2022-09-24T14:42:55;97935.09;;;6.05;100.00
58056;BME280;53159;55.152;36.614;2022-09-24T14:45:34;97911.00;;;6.01;100.00
58056;BME280;53159;55.152;36.614;2022-09-24T14:48:18;97941.50;;;6.35;100.00
58056;BME280;53159;55.152;36.614;2022-09-24T14:50:48;97913.44;;;5.92;100.00
58056;BME280;53159;55.152;36.614;2022-09-24T14:53:35;97921.31;;;6.01;100.00
58056;BME280;53159;55.152;36.614;2022-09-24T14:56:19;97900.31;;;5.76;100.00
58056;BME280;53159;55.152;36.614;2022-09-24T14:59:12;97889.78;;;5.61;100.00
58056;BME280;53159;55.152;36.614;2022-09-24T15:01:46;97903.50;;;5.60;100.00
58056;BME280;53159;55.152;36.614;2022-09-24T15:04:32;97902.47;;;5.48;100.00
58056;BME280;53159;55.152;36.614;2022-09-24T15:07:02;97931.00;;;5.64;100.00
58056;BME280;53159;55.152;36.614;2022-09-24T15:09:32;97906.66;;;5.43;100.00
58056;BME280;53159;55.152;36.614;2022-09-24T15:12:20;97882.41;;;5.27;100.00